sensor_id;sensor_type;location;lat;lon;timestamp;pressure;altitude;pressure_sealevel;temperature
73662;BMP280;61956;52.540;13.382;2023-10-09T00:00:24;87124.38;;;12.03
73662;BMP280;61956;52.540;13.382;2023-10-09T00:03:17;87130.13;;;12.02
73662;BMP280;61956;52.540;13.382;2023-10-09T00:05:49;87109.31;;;12.00
73662;BMP280;61956;52.540;13.382;2023-10-09T00:08:19;86300.50;;;11.93
73662;BMP280;61956;52.540;13.382;2023-10-09T00:10:59;85117.16;;;11.81
73662;BMP280;61956;52.540;13.382;2023-10-09T00:13:39;84372.03;;;11.73
73662;BMP280;61956;52.540;13.382;2023-10-09T00:16:15;85055.63;;;11.74
73662;BMP280;61956;52.540;13.382;2023-10-09T00:18:49;85270.09;;;11.72
73662;BMP280;61956;52.540;13.382;2023-10-09T00:21:19;84905.63;;;11.68
73662;BMP280;61956;52.540;13.382;2023-10-09T00:23:49;84283.44;;;11.60
73662;BMP280;61956;52.540;13.382;2023-10-09T00:26:27;84549.53;;;11.60
73662;BMP280;61956;52.540;13.382;2023-10-09T00:29:08;83686.09;;;11.51
73662;BMP280;61956;52.540;13.382;2023-10-09T00:31:41;83312.34;;;11.46
73662;BMP280;61956;52.540;13.382;2023-10-09T00:34:16;83263.94;;;11.42
73662;BMP280;61956;52.540;13.382;2023-10-09T00:36:45;83625.44;;;11.42
73662;BMP280;61956;52.540;13.382;2023-10-09T00:39:20;82402.66;;;11.30
73662;BMP280;61956;52.540;13.382;2023-10-09T00:42:13;82853.03;;;11.29
73662;BMP280;61956;52.540;13.382;2023-10-09T00:44:52;82579.53;;;11.25
73662;BMP280;61956;52.540;13.382;2023-10-09T00:47:22;82933.09;;;11.25
73662;BMP280;61956;52.540;13.382;2023-10-09T00:49:54;82447.44;;;11.19
73662;BMP280;61956;52.540;13.382;2023-10-09T00:52:34;82149.59;;;11.13
73662;BMP280;61956;52.540;13.382;2023-10-09T00:55:11;82539.78;;;11.14
73662;BMP280;61956;52.540;13.382;2023-10-09T00:57:51;83011.97;;;11.16
73662;BMP280;61956;52.540;13.382;2023-10-09T01:00:24;83017.13;;;11.14
73662;BMP280;61956;52.540;13.382;2023-10-09T01:02:59;83635.81;;;11.18
73662;BMP280;61956;52.540;13.382;2023-10-09T01:05:46;83323.59;;;11.13
73662;BMP280;61956;52.540;13.382;2023-10-09T01:08:23;83364.22;;;11.13
73662;BMP280;61956;52.540;13.382;2023-10-09T01:10:56;83537.13;;;11.13
73662;BMP280;61956;52.540;13.382;2023-10-09T01:13:38;83115.25;;;11.08
73662;BMP280;61956;52.540;13.382;2023-10-09T01:16:19;83681.00;;;11.10
73662;BMP280;61956;52.540;13.382;2023-10-09T01:18:49;84655.53;;;11.16
73662;BMP280;61956;52.540;13.382;2023-10-09T01:21:21;84378.66;;;11.15
73662;BMP280;61956;52.540;13.382;2023-10-09T01:23:53;84161.13;;;11.12
73662;BMP280;61956;52.540;13.382;2023-10-09T01:26:35;84451.56;;;11.13
73662;BMP280;61956;52.540;13.382;2023-10-09T01:29:12;84033.31;;;11.09
73662;BMP280;61956;52.540;13.382;2023-10-09T01:31:45;84719.41;;;11.13
73662;BMP280;61956;52.540;13.382;2023-10-09T01:34:18;86160.88;;;11.23
73662;BMP280;61956;52.540;13.382;2023-10-09T01:36:51;86020.75;;;11.25
73662;BMP280;61956;52.540;13.382;2023-10-09T01:39:24;85148.78;;;11.18
73662;BMP280;61956;52.540;13.382;2023-10-09T01:41:54;86161.56;;;11.24
73662;BMP280;61956;52.540;13.382;2023-10-09T01:44:32;86029.13;;;11.23
73662;BMP280;61956;52.540;13.382;2023-10-09T01:47:09;85981.94;;;11.23
73662;BMP280;61956;52.540;13.382;2023-10-09T01:49:40;85898.63;;;11.22
73662;BMP280;61956;52.540;13.382;2023-10-09T01:52:10;85248.84;;;11.17
73662;BMP280;61956;52.540;13.382;2023-10-09T01:54:45;85320.50;;;11.17
73662;BMP280;61956;52.540;13.382;2023-10-09T01:57:16;84735.53;;;11.11
73662;BMP280;61956;52.540;13.382;2023-10-09T01:59:49;84571.53;;;11.08
73662;BMP280;61956;52.540;13.382;2023-10-09T02:02:20;84874.25;;;11.09
73662;BMP280;61956;52.540;13.382;2023-10-09T02:05:01;83923.63;;;11.00
73662;BMP280;61956;52.540;13.382;2023-10-09T02:07:36;83942.34;;;10.99
73662;BMP280;61956;52.540;13.382;2023-10-09T02:10:20;84314.63;;;10.99
73662;BMP280;61956;52.540;13.382;2023-10-09T02:13:05;84076.50;;;10.97
73662;BMP280;61956;52.540;13.382;2023-10-09T02:15:39;84130.03;;;10.96
73662;BMP280;61956;52.540;13.382;2023-10-09T02:18:18;84013.25;;;10.94
73662;BMP280;61956;52.540;13.382;2023-10-09T02:20:53;84034.56;;;10.92
73662;BMP280;61956;52.540;13.382;2023-10-09T02:23:31;84872.78;;;10.98
73662;BMP280;61956;52.540;13.382;2023-10-09T02:26:08;85238.75;;;10.99
73662;BMP280;61956;52.540;13.382;2023-10-09T02:28:44;84748.19;;;10.95
73662;BMP280;61956;52.540;13.382;2023-10-09T02:31:18;84706.22;;;10.95
73662;BMP280;61956;52.540;13.382;2023-10-09T02:33:49;84794.59;;;10.93
73662;BMP280;61956;52.540;13.382;2023-10-09T02:36:20;84403.56;;;10.90
73662;BMP280;61956;52.540;13.382;2023-10-09T02:38:50;84542.91;;;10.90
73662;BMP280;61956;52.540;13.382;2023-10-09T02:41:22;84604.22;;;10.89
73662;BMP280;61956;52.540;13.382;2023-10-09T02:43:54;84509.97;;;10.88
73662;BMP280;61956;52.540;13.382;2023-10-09T02:46:36;84575.13;;;10.87
73662;BMP280;61956;52.540;13.382;2023-10-09T02:49:06;85447.69;;;10.93
73662;BMP280;61956;52.540;13.382;2023-10-09T02:51:35;85081.09;;;10.91
73662;BMP280;61956;52.540;13.382;2023-10-09T02:54:08;85111.41;;;10.90
73662;BMP280;61956;52.540;13.382;2023-10-09T02:56:47;85377.94;;;10.91
73662;BMP280;61956;52.540;13.382;2023-10-09T02:59:22;85288.88;;;10.90
73662;BMP280;61956;52.540;13.382;2023-10-09T03:01:51;85561.94;;;10.92
73662;BMP280;61956;52.540;13.382;2023-10-09T03:04:21;85760.09;;;10.93
73662;BMP280;61956;52.540;13.382;2023-10-09T03:06:49;85547.09;;;10.92
73662;BMP280;61956;52.540;13.382;2023-10-09T03:09:23;85705.25;;;10.93
73662;BMP280;61956;52.540;13.382;2023-10-09T03:11:59;85532.19;;;10.90
73662;BMP280;61956;52.540;13.382;2023-10-09T03:14:33;84968.03;;;10.85
73662;BMP280;61956;52.540;13.382;2023-10-09T03:17:04;85426.97;;;10.89
73662;BMP280;61956;52.540;13.382;2023-10-09T03:19:37;85304.91;;;10.86
73662;BMP280;61956;52.540;13.382;2023-10-09T03:22:07;85435.22;;;10.85
73662;BMP280;61956;52.540;13.382;2023-10-09T03:24:37;85894.25;;;10.89
73662;BMP280;61956;52.540;13.382;2023-10-09T03:27:10;85504.94;;;10.85
73662;BMP280;61956;52.540;13.382;2023-10-09T03:29:39;85583.72;;;10.86
73662;BMP280;61956;52.540;13.382;2023-10-09T03:32:14;85629.50;;;10.86
73662;BMP280;61956;52.540;13.382;2023-10-09T03:34:45;85549.44;;;10.84
73662;BMP280;61956;52.540;13.382;2023-10-09T03:37:17;85745.69;;;10.86
73662;BMP280;61956;52.540;13.382;2023-10-09T03:40:00;85274.50;;;10.83
73662;BMP280;61956;52.540;13.382;2023-10-09T03:42:32;85634.63;;;10.84
73662;BMP280;61956;52.540;13.382;2023-10-09T03:45:02;85979.31;;;10.85
73662;BMP280;61956;52.540;13.382;2023-10-09T03:47:38;85394.44;;;10.80
73662;BMP280;61956;52.540;13.382;2023-10-09T03:50:08;85256.31;;;10.79
73662;BMP280;61956;52.540;13.382;2023-10-09T03:52:49;85610.00;;;10.81
73662;BMP280;61956;52.540;13.382;2023-10-09T03:55:19;85347.91;;;10.78
73662;BMP280;61956;52.540;13.382;2023-10-09T03:57:50;85106.59;;;10.77
73662;BMP280;61956;52.540;13.382;2023-10-09T04:00:19;85551.81;;;10.78
73662;BMP280;61956;52.540;13.382;2023-10-09T04:02:58;86841.91;;;10.87
73662;BMP280;61956;52.540;13.382;2023-10-09T04:05:28;87015.72;;;10.89
73662;BMP280;61956;52.540;13.382;2023-10-09T04:07:57;86827.84;;;10.90
73662;BMP280;61956;52.540;13.382;2023-10-09T04:10:38;87117.81;;;10.90
73662;BMP280;61956;52.540;13.382;2023-10-09T04:13:19;86192.28;;;10.84
73662;BMP280;61956;52.540;13.382;2023-10-09T04:15:59;86318.81;;;10.84
73662;BMP280;61956;52.540;13.382;2023-10-09T04:18:35;87009.91;;;10.89
73662;BMP280;61956;52.540;13.382;2023-10-09T04:21:04;87391.78;;;10.93
73662;BMP280;61956;52.540;13.382;2023-10-09T04:23:45;87831.25;;;10.97
73662;BMP280;61956;52.540;13.382;2023-10-09T04:26:36;87457.13;;;10.95
73662;BMP280;61956;52.540;13.382;2023-10-09T04:29:13;87232.25;;;10.93
73662;BMP280;61956;52.540;13.382;2023-10-09T04:31:45;86888.59;;;10.91
73662;BMP280;61956;52.540;13.382;2023-10-09T04:34:17;86287.81;;;10.84
73662;BMP280;61956;52.540;13.382;2023-10-09T04:36:55;85908.78;;;10.80
73662;BMP280;61956;52.540;13.382;2023-10-09T04:39:45;86728.16;;;10.85
73662;BMP280;61956;52.540;13.382;2023-10-09T04:42:27;86074.69;;;10.81
73662;BMP280;61956;52.540;13.382;2023-10-09T04:45:06;86414.94;;;10.82
73662;BMP280;61956;52.540;13.382;2023-10-09T04:48:09;86360.59;;;10.80
73662;BMP280;61956;52.540;13.382;2023-10-09T04:50:36;86991.59;;;10.85
73662;BMP280;61956;52.540;13.382;2023-10-09T04:53:14;87206.63;;;10.85
73662;BMP280;61956;52.540;13.382;2023-10-09T04:55:50;87091.06;;;10.86
73662;BMP280;61956;52.540;13.382;2023-10-09T04:58:30;86776.47;;;10.82
73662;BMP280;61956;52.540;13.382;2023-10-09T05:01:07;86769.38;;;10.83
73662;BMP280;61956;52.540;13.382;2023-10-09T05:04:02;86906.25;;;10.83
73662;BMP280;61956;52.540;13.382;2023-10-09T05:06:41;86827.44;;;10.82
73662;BMP280;61956;52.540;13.382;2023-10-09T05:09:21;86593.00;;;10.80
73662;BMP280;61956;52.540;13.382;2023-10-09T05:11:51;86216.53;;;10.77
73662;BMP280;61956;52.540;13.382;2023-10-09T05:14:35;86490.88;;;10.77
73662;BMP280;61956;52.540;13.382;2023-10-09T05:17:14;85841.41;;;10.72
73662;BMP280;61956;52.540;13.382;2023-10-09T05:19:51;86241.59;;;10.74
73662;BMP280;61956;52.540;13.382;2023-10-09T05:22:35;86063.97;;;10.71
73662;BMP280;61956;52.540;13.382;2023-10-09T05:25:19;85936.16;;;10.70
73662;BMP280;61956;52.540;13.382;2023-10-09T05:28:08;86398.31;;;10.72
73662;BMP280;61956;52.540;13.382;2023-10-09T05:30:49;86404.16;;;10.72
73662;BMP280;61956;52.540;13.382;2023-10-09T05:33:31;86828.38;;;10.75
73662;BMP280;61956;52.540;13.382;2023-10-09T05:36:01;87004.66;;;10.75
73662;BMP280;61956;52.540;13.382;2023-10-09T05:38:51;86577.81;;;10.73
73662;BMP280;61956;52.540;13.382;2023-10-09T05:41:44;86856.78;;;10.75
73662;BMP280;61956;52.540;13.382;2023-10-09T05:44:18;86402.13;;;10.71
73662;BMP280;61956;52.540;13.382;2023-10-09T05:46:59;86944.59;;;10.75
73662;BMP280;61956;52.540;13.382;2023-10-09T05:49:43;86585.44;;;10.71
73662;BMP280;61956;52.540;13.382;2023-10-09T05:52:21;86445.94;;;10.69
73662;BMP280;61956;52.540;13.382;2023-10-09T05:54:58;86515.63;;;10.69
73662;BMP280;61956;52.540;13.382;2023-10-09T05:57:39;87187.19;;;10.73
73662;BMP280;61956;52.540;13.382;2023-10-09T06:00:20;87136.91;;;10.74
73662;BMP280;61956;52.540;13.382;2023-10-09T06:03:02;86857.88;;;10.72
73662;BMP280;61956;52.540;13.382;2023-10-09T06:05:55;86798.41;;;10.70
73662;BMP280;61956;52.540;13.382;2023-10-09T06:08:32;86978.59;;;10.71
73662;BMP280;61956;52.540;13.382;2023-10-09T06:11:36;87536.00;;;10.75
73662;BMP280;61956;52.540;13.382;2023-10-09T06:14:05;87295.78;;;10.75
73662;BMP280;61956;52.540;13.382;2023-10-09T06:16:42;87114.22;;;10.72
73662;BMP280;61956;52.540;13.382;2023-10-09T06:19:10;87603.16;;;10.75
73662;BMP280;61956;52.540;13.382;2023-10-09T06:21:55;88102.66;;;10.79
73662;BMP280;61956;52.540;13.382;2023-10-09T06:25:06;87437.16;;;10.74
73662;BMP280;61956;52.540;13.382;2023-10-09T06:27:38;88357.22;;;10.80
73662;BMP280;61956;52.540;13.382;2023-10-09T06:30:19;88741.88;;;10.84
73662;BMP280;61956;52.540;13.382;2023-10-09T06:32:53;90049.69;;;10.95
73662;BMP280;61956;52.540;13.382;2023-10-09T06:35:45;90220.81;;;10.99
73662;BMP280;61956;52.540;13.382;2023-10-09T06:38:24;90054.78;;;11.01
73662;BMP280;61956;52.540;13.382;2023-10-09T06:40:59;89602.56;;;10.97
73662;BMP280;61956;52.540;13.382;2023-10-09T06:43:40;90470.94;;;11.04
73662;BMP280;61956;52.540;13.382;2023-10-09T06:46:16;90477.53;;;11.05
73662;BMP280;61956;52.540;13.382;2023-10-09T06:49:05;90206.63;;;11.06
73662;BMP280;61956;52.540;13.382;2023-10-09T06:51:47;90556.72;;;11.08
73662;BMP280;61956;52.540;13.382;2023-10-09T06:54:24;90708.44;;;11.11
73662;BMP280;61956;52.540;13.382;2023-10-09T06:56:55;90866.53;;;11.13
73662;BMP280;61956;52.540;13.382;2023-10-09T06:59:36;90951.44;;;11.15
73662;BMP280;61956;52.540;13.382;2023-10-09T07:02:32;91032.56;;;11.18
73662;BMP280;61956;52.540;13.382;2023-10-09T07:05:11;91507.84;;;11.21
73662;BMP280;61956;52.540;13.382;2023-10-09T07:07:43;91787.22;;;11.24
73662;BMP280;61956;52.540;13.382;2023-10-09T07:10:23;92268.91;;;11.30
73662;BMP280;61956;52.540;13.382;2023-10-09T07:13:04;92697.78;;;11.36
73662;BMP280;61956;52.540;13.382;2023-10-09T07:15:30;92988.50;;;11.41
73662;BMP280;61956;52.540;13.382;2023-10-09T07:18:11;93490.59;;;11.46
73662;BMP280;61956;52.540;13.382;2023-10-09T07:21:06;92969.53;;;11.44
73662;BMP280;61956;52.540;13.382;2023-10-09T07:23:37;92855.09;;;11.45
73662;BMP280;61956;52.540;13.382;2023-10-09T07:26:24;93250.97;;;11.50
73662;BMP280;61956;52.540;13.382;2023-10-09T07:29:05;93196.56;;;11.50
73662;BMP280;61956;52.540;13.382;2023-10-09T07:31:49;93167.94;;;11.54
73662;BMP280;61956;52.540;13.382;2023-10-09T07:34:24;93395.56;;;11.55
73662;BMP280;61956;52.540;13.382;2023-10-09T07:37:20;93281.13;;;11.57
73662;BMP280;61956;52.540;13.382;2023-10-09T07:39:49;93907.84;;;11.62
73662;BMP280;61956;52.540;13.382;2023-10-09T07:42:26;93430.59;;;11.60
73662;BMP280;61956;52.540;13.382;2023-10-09T07:45:15;93091.84;;;11.60
73662;BMP280;61956;52.540;13.382;2023-10-09T07:47:59;92949.72;;;11.59
73662;BMP280;61956;52.540;13.382;2023-10-09T07:50:38;93656.34;;;11.66
73662;BMP280;61956;52.540;13.382;2023-10-09T07:53:14;92699.84;;;11.60
73662;BMP280;61956;52.540;13.382;2023-10-09T07:55:51;92585.09;;;11.59
73662;BMP280;61956;52.540;13.382;2023-10-09T07:58:27;93249.09;;;11.63
73662;BMP280;61956;52.540;13.382;2023-10-09T08:00:59;93435.28;;;11.65
73662;BMP280;61956;52.540;13.382;2023-10-09T08:03:41;93439.66;;;11.68
73662;BMP280;61956;52.540;13.382;2023-10-09T08:06:12;92834.75;;;11.66
73662;BMP280;61956;52.540;13.382;2023-10-09T08:08:53;92389.22;;;11.62
73662;BMP280;61956;52.540;13.382;2023-10-09T08:11:34;92424.06;;;11.61
73662;BMP280;61956;52.540;13.382;2023-10-09T08:14:26;92649.03;;;11.62
73662;BMP280;61956;52.540;13.382;2023-10-09T08:17:14;92459.16;;;11.62
73662;BMP280;61956;52.540;13.382;2023-10-09T08:19:47;92692.63;;;11.64
73662;BMP280;61956;52.540;13.382;2023-10-09T08:22:26;92854.31;;;11.67
73662;BMP280;61956;52.540;13.382;2023-10-09T08:25:19;92752.53;;;11.66
73662;BMP280;61956;52.540;13.382;2023-10-09T08:27:59;92949.06;;;11.68
73662;BMP280;61956;52.540;13.382;2023-10-09T08:30:43;93770.16;;;11.76
73662;BMP280;61956;52.540;13.382;2023-10-09T08:33:29;92930.78;;;11.71
73662;BMP280;61956;52.540;13.382;2023-10-09T08:36:08;92872.34;;;11.70
73662;BMP280;61956;52.540;13.382;2023-10-09T08:38:40;92793.84;;;11.70
73662;BMP280;61956;52.540;13.382;2023-10-09T08:41:12;93327.66;;;11.73
73662;BMP280;61956;52.540;13.382;2023-10-09T08:43:50;93622.69;;;11.78
73662;BMP280;61956;52.540;13.382;2023-10-09T08:46:23;93614.91;;;11.78
73662;BMP280;61956;52.540;13.382;2023-10-09T08:48:54;93396.41;;;11.78
73662;BMP280;61956;52.540;13.382;2023-10-09T08:51:24;93139.06;;;11.77
73662;BMP280;61956;52.540;13.382;2023-10-09T08:53:53;92947.69;;;11.76
73662;BMP280;61956;52.540;13.382;2023-10-09T08:56:23;92722.59;;;11.74
73662;BMP280;61956;52.540;13.382;2023-10-09T08:58:53;93182.41;;;11.77
73662;BMP280;61956;52.540;13.382;2023-10-09T09:01:25;93910.03;;;11.83
73662;BMP280;61956;52.540;13.382;2023-10-09T09:03:58;94205.56;;;11.87
73662;BMP280;61956;52.540;13.382;2023-10-09T09:06:36;94051.44;;;11.88
73662;BMP280;61956;52.540;13.382;2023-10-09T09:09:10;94094.81;;;11.88
73662;BMP280;61956;52.540;13.382;2023-10-09T09:11:41;94399.28;;;11.94
73662;BMP280;61956;52.540;13.382;2023-10-09T09:14:17;94309.22;;;11.94
73662;BMP280;61956;52.540;13.382;2023-10-09T09:16:50;94991.13;;;11.99
73662;BMP280;61956;52.540;13.382;2023-10-09T09:19:30;95477.53;;;12.05
73662;BMP280;61956;52.540;13.382;2023-10-09T09:22:04;96165.16;;;12.14
73662;BMP280;61956;52.540;13.382;2023-10-09T09:24:40;97235.44;;;12.25
73662;BMP280;61956;52.540;13.382;2023-10-09T09:27:43;97166.91;;;12.29
73662;BMP280;61956;52.540;13.382;2023-10-09T09:30:24;97602.88;;;12.36
73662;BMP280;61956;52.540;13.382;2023-10-09T09:33:17;97046.81;;;12.36
73662;BMP280;61956;52.540;13.382;2023-10-09T09:35:59;97216.59;;;12.40
73662;BMP280;61956;52.540;13.382;2023-10-09T09:38:29;96452.34;;;12.38
73662;BMP280;61956;52.540;13.382;2023-10-09T09:41:08;96378.09;;;12.37
73662;BMP280;61956;52.540;13.382;2023-10-09T09:43:37;96215.94;;;12.38
73662;BMP280;61956;52.540;13.382;2023-10-09T09:46:13;95149.72;;;12.30
73662;BMP280;61956;52.540;13.382;2023-10-09T09:48:47;95150.84;;;12.29
73662;BMP280;61956;52.540;13.382;2023-10-09T09:51:20;95103.00;;;12.30
73662;BMP280;61956;52.540;13.382;2023-10-09T09:53:49;95274.00;;;12.31
73662;BMP280;61956;52.540;13.382;2023-10-09T09:56:20;94991.38;;;12.30
73662;BMP280;61956;52.540;13.382;2023-10-09T09:58:51;94697.69;;;12.28
73662;BMP280;61956;52.540;13.382;2023-10-09T10:01:26;94392.94;;;12.25
73662;BMP280;61956;52.540;13.382;2023-10-09T10:04:04;94623.88;;;12.29
73662;BMP280;61956;52.540;13.382;2023-10-09T10:06:39;94717.72;;;12.27
73662;BMP280;61956;52.540;13.382;2023-10-09T10:09:37;94256.09;;;12.26
73662;BMP280;61956;52.540;13.382;2023-10-09T10:12:07;93796.16;;;12.22
73662;BMP280;61956;52.540;13.382;2023-10-09T10:14:53;93627.19;;;12.20
73662;BMP280;61956;52.540;13.382;2023-10-09T10:17:25;93721.31;;;12.20
73662;BMP280;61956;52.540;13.382;2023-10-09T10:20:06;93534.22;;;12.18
73662;BMP280;61956;52.540;13.382;2023-10-09T10:22:47;94006.72;;;12.20
73662;BMP280;61956;52.540;13.382;2023-10-09T10:25:32;93467.19;;;12.17
73662;BMP280;61956;52.540;13.382;2023-10-09T10:28:18;93560.56;;;12.17
73662;BMP280;61956;52.540;13.382;2023-10-09T10:30:54;93738.44;;;12.18
73662;BMP280;61956;52.540;13.382;2023-10-09T10:33:27;94715.50;;;12.26
73662;BMP280;61956;52.540;13.382;2023-10-09T10:35:58;95192.38;;;12.32
73662;BMP280;61956;52.540;13.382;2023-10-09T10:38:32;95198.31;;;12.33
73662;BMP280;61956;52.540;13.382;2023-10-09T10:41:13;95207.19;;;12.35
73662;BMP280;61956;52.540;13.382;2023-10-09T10:43:42;95254.66;;;12.36
73662;BMP280;61956;52.540;13.382;2023-10-09T10:46:29;95621.97;;;12.42
73662;BMP280;61956;52.540;13.382;2023-10-09T10:49:14;95656.47;;;12.43
73662;BMP280;61956;52.540;13.382;2023-10-09T10:51:50;95259.13;;;12.43
73662;BMP280;61956;52.540;13.382;2023-10-09T10:54:27;95340.75;;;12.42
73662;BMP280;61956;52.540;13.382;2023-10-09T10:57:18;94587.41;;;12.40
73662;BMP280;61956;52.540;13.382;2023-10-09T10:59:55;94771.00;;;12.39
73662;BMP280;61956;52.540;13.382;2023-10-09T11:02:43;94556.63;;;12.38
73662;BMP280;61956;52.540;13.382;2023-10-09T11:05:09;94207.03;;;12.35
73662;BMP280;61956;52.540;13.382;2023-10-09T11:07:59;94466.19;;;12.37
73662;BMP280;61956;52.540;13.382;2023-10-09T11:10:31;93371.16;;;12.29
73662;BMP280;61956;52.540;13.382;2023-10-09T11:13:00;95154.16;;;12.40
73662;BMP280;61956;52.540;13.382;2023-10-09T11:15:41;96354.97;;;12.51
73662;BMP280;61956;52.540;13.382;2023-10-09T11:18:22;98152.44;;;12.70
73662;BMP280;61956;52.540;13.382;2023-10-09T11:20:53;97471.91;;;12.70
73662;BMP280;61956;52.540;13.382;2023-10-09T11:23:47;97660.00;;;12.74
73662;BMP280;61956;52.540;13.382;2023-10-09T11:26:25;96969.06;;;12.71
73662;BMP280;61956;52.540;13.382;2023-10-09T11:29:07;96536.09;;;12.70
73662;BMP280;61956;52.540;13.382;2023-10-09T11:32:02;96837.69;;;12.74
73662;BMP280;61956;52.540;13.382;2023-10-09T11:34:30;97141.19;;;12.77
73662;BMP280;61956;52.540;13.382;2023-10-09T11:37:02;97838.34;;;12.84
73662;BMP280;61956;52.540;13.382;2023-10-09T11:39:32;99274.94;;;13.00
73662;BMP280;61956;52.540;13.382;2023-10-09T11:42:07;99645.03;;;13.07
73662;BMP280;61956;52.540;13.382;2023-10-09T11:44:38;100397.34;;;13.19
73662;BMP280;61956;52.540;13.382;2023-10-09T11:47:11;102635.03;;;13.43
73662;BMP280;61956;52.540;13.382;2023-10-09T11:49:50;102230.59;;;13.51
73662;BMP280;61956;52.540;13.382;2023-10-09T11:52:54;101042.25;;;13.48
73662;BMP280;61956;52.540;13.382;2023-10-09T11:55:25;100094.19;;;13.45
73662;BMP280;61956;52.540;13.382;2023-10-09T11:57:58;99023.16;;;13.38
73662;BMP280;61956;52.540;13.382;2023-10-09T12:00:27;101280.66;;;13.57
73662;BMP280;61956;52.540;13.382;2023-10-09T12:02:58;102203.22;;;13.74
73662;BMP280;61956;52.540;13.382;2023-10-09T12:05:31;100251.59;;;13.65
73662;BMP280;61956;52.540;13.382;2023-10-09T12:08:04;98889.00;;;13.54
73662;BMP280;61956;52.540;13.382;2023-10-09T12:10:36;97771.06;;;13.45
73662;BMP280;61956;52.540;13.382;2023-10-09T12:13:06;96516.72;;;13.33
73662;BMP280;61956;52.540;13.382;2023-10-09T12:15:35;98824.00;;;13.49
73662;BMP280;61956;52.540;13.382;2023-10-09T12:18:07;98873.66;;;13.53
73662;BMP280;61956;52.540;13.382;2023-10-09T12:20:41;97442.31;;;13.45
73662;BMP280;61956;52.540;13.382;2023-10-09T12:23:16;96550.94;;;13.35
73662;BMP280;61956;52.540;13.382;2023-10-09T12:25:48;96818.19;;;13.35
73662;BMP280;61956;52.540;13.382;2023-10-09T12:28:17;97080.31;;;13.38
73662;BMP280;61956;52.540;13.382;2023-10-09T12:30:48;97036.44;;;13.36
73662;BMP280;61956;52.540;13.382;2023-10-09T12:33:19;97575.72;;;13.42
73662;BMP280;61956;52.540;13.382;2023-10-09T12:35:54;99671.25;;;13.60
73662;BMP280;61956;52.540;13.382;2023-10-09T12:38:26;101261.50;;;13.80
73662;BMP280;61956;52.540;13.382;2023-10-09T12:41:04;100365.31;;;13.81
73662;BMP280;61956;52.540;13.382;2023-10-09T12:43:44;97566.63;;;13.60
73662;BMP280;61956;52.540;13.382;2023-10-09T12:46:13;96880.25;;;13.52
73662;BMP280;61956;52.540;13.382;2023-10-09T12:48:43;96200.19;;;13.44
73662;BMP280;61956;52.540;13.382;2023-10-09T12:51:13;95952.22;;;13.40
73662;BMP280;61956;52.540;13.382;2023-10-09T12:53:46;96200.88;;;13.41
73662;BMP280;61956;52.540;13.382;2023-10-09T12:56:23;95787.59;;;13.36
73662;BMP280;61956;52.540;13.382;2023-10-09T12:58:58;94831.00;;;13.27
73662;BMP280;61956;52.540;13.382;2023-10-09T13:01:27;94733.69;;;13.25
73662;BMP280;61956;52.540;13.382;2023-10-09T13:03:58;95068.34;;;13.24
73662;BMP280;61956;52.540;13.382;2023-10-09T13:06:27;95601.41;;;13.28
73662;BMP280;61956;52.540;13.382;2023-10-09T13:08:56;95603.66;;;13.29
73662;BMP280;61956;52.540;13.382;2023-10-09T13:11:28;95831.44;;;13.30
73662;BMP280;61956;52.540;13.382;2023-10-09T13:13:58;96339.47;;;13.35
73662;BMP280;61956;52.540;13.382;2023-10-09T13:16:37;96379.63;;;13.37
73662;BMP280;61956;52.540;13.382;2023-10-09T13:19:06;95777.53;;;13.31
73662;BMP280;61956;52.540;13.382;2023-10-09T13:21:37;95699.50;;;13.31
73662;BMP280;61956;52.540;13.382;2023-10-09T13:24:07;95160.81;;;13.25
73662;BMP280;61956;52.540;13.382;2023-10-09T13:26:41;94502.03;;;13.19
73662;BMP280;61956;52.540;13.382;2023-10-09T13:29:11;93730.78;;;13.11
73662;BMP280;61956;52.540;13.382;2023-10-09T13:31:48;94193.63;;;13.13
73662;BMP280;61956;52.540;13.382;2023-10-09T13:34:19;94366.28;;;13.12
73662;BMP280;61956;52.540;13.382;2023-10-09T13:36:47;94708.56;;;13.15
73662;BMP280;61956;52.540;13.382;2023-10-09T13:39:19;94353.28;;;13.12
73662;BMP280;61956;52.540;13.382;2023-10-09T13:41:53;93729.41;;;13.06
73662;BMP280;61956;52.540;13.382;2023-10-09T13:44:28;93989.63;;;13.04
73662;BMP280;61956;52.540;13.382;2023-10-09T13:46:57;93196.38;;;12.98
73662;BMP280;61956;52.540;13.382;2023-10-09T13:49:27;93375.31;;;12.96
73662;BMP280;61956;52.540;13.382;2023-10-09T13:51:59;93364.63;;;12.94
73662;BMP280;61956;52.540;13.382;2023-10-09T13:54:29;93257.41;;;12.94
73662;BMP280;61956;52.540;13.382;2023-10-09T13:57:10;93357.25;;;12.93
73662;BMP280;61956;52.540;13.382;2023-10-09T13:59:41;94434.44;;;12.99
73662;BMP280;61956;52.540;13.382;2023-10-09T14:02:15;94404.72;;;13.00
73662;BMP280;61956;52.540;13.382;2023-10-09T14:04:47;93320.16;;;12.92
73662;BMP280;61956;52.540;13.382;2023-10-09T14:07:16;93169.69;;;12.89
73662;BMP280;61956;52.540;13.382;2023-10-09T14:09:46;92960.91;;;12.86
73662;BMP280;61956;52.540;13.382;2023-10-09T14:12:35;93017.75;;;12.84
73662;BMP280;61956;52.540;13.382;2023-10-09T14:15:07;93688.38;;;12.88
73662;BMP280;61956;52.540;13.382;2023-10-09T14:17:36;93778.13;;;12.89
73662;BMP280;61956;52.540;13.382;2023-10-09T14:20:09;93823.44;;;12.88
73662;BMP280;61956;52.540;13.382;2023-10-09T14:22:50;93759.94;;;12.89
73662;BMP280;61956;52.540;13.382;2023-10-09T14:25:19;94034.16;;;12.90
73662;BMP280;61956;52.540;13.382;2023-10-09T14:27:51;94623.47;;;12.95
73662;BMP280;61956;52.540;13.382;2023-10-09T14:30:21;94650.19;;;12.96
73662;BMP280;61956;52.540;13.382;2023-10-09T14:32:56;94362.13;;;12.94
73662;BMP280;61956;52.540;13.382;2023-10-09T14:35:27;93880.91;;;12.90
73662;BMP280;61956;52.540;13.382;2023-10-09T14:37:56;93956.25;;;12.90
73662;BMP280;61956;52.540;13.382;2023-10-09T14:40:27;94304.63;;;12.92
73662;BMP280;61956;52.540;13.382;2023-10-09T14:43:00;94529.56;;;12.93
73662;BMP280;61956;52.540;13.382;2023-10-09T14:45:29;94371.06;;;12.93
73662;BMP280;61956;52.540;13.382;2023-10-09T14:47:58;94060.88;;;12.91